Skip Navigation Links
NOAA logo - Click to go to the NOAA homepage
NOAA's National Weather Service
Alaska Aviation Weather Unit
  NWS logo - Click to go to the NWS homepage
Left Navbar Graphic     03 AKDT = 11 GMT

   
NOAA is celebrating 200 years of science, service, and stewardship. Visit the NOAA 200th celebration Web site to learn more.
USA.gov is the U.S. Government's official Web portal to all Federal, state and local government Web resources and services.
Facebook
NWS on Facebook

AAWU Home :: Display TAF Add Bookmark
TAF CYXJ 290638Z 2907/2919 14007KT P6SM FEW090 SCT240
    RMK NXT FCST BY 291300Z=

METAR CYXJ 290500Z 13007KT 15SM FEW090 SCT240 01/M01 A2979 RMK AC1CI2 SLP121= METAR CYXJ 290600Z 13005KT 15SM FEW170 SCT210 01/M01 A2979 RMK AC2CI1 SLP121= METAR CYXJ 290700Z 14003KT 100V160 15SM FEW170 FEW210 00/M02 A2980 RMK AC1CI1 SLP120= METAR CYXJ 290800Z 00000KT 15SM FEW160 01/M01 A2980 RMK AC2 SLP120= METAR CYXJ 290900Z 22003KT 15SM FEW160 01/M02 A2980 RMK AC2 SLP120= METAR CYXJ 291000Z 17003KT 15SM FEW160 M00/M02 A2980 RMK AC2 SLP120=
 Alaska TAF Map

NOAA's National Weather Service
Alaska Aviation Weather Unit
6930 Sand Lake Road
Anchorage, AK 99502-1845
Disclaimer
Credits
Glossary
Privacy Policy
About Us
Career Opportunities
Contact AAWU Internet Services Site last modified: April, 17th 2012